createdAt,value
2018-09-06T00:01:26.046Z,11.07
2018-09-06T00:03:28.968Z,9.07
2018-09-06T00:05:32.011Z,11.13
2018-09-06T00:07:34.930Z,10.43
2018-09-06T00:09:37.966Z,12.40
2018-09-06T00:11:41.883Z,12.57
2018-09-06T00:13:44.802Z,9.63
2018-09-06T00:15:47.737Z,8.50
2018-09-06T00:17:51.438Z,9.80
2018-09-06T00:19:54.377Z,9.07
2018-09-06T00:21:57.305Z,9.53
2018-09-06T00:24:00.373Z,9.17
2018-09-06T00:26:04.175Z,12.70
2018-09-06T00:28:07.878Z,12.70
2018-09-06T00:30:11.593Z,12.37
2018-09-06T00:32:14.509Z,11.33
2018-09-06T00:34:17.450Z,9.97
2018-09-06T00:36:20.427Z,9.70
2018-09-06T00:38:24.100Z,11.20
2018-09-06T00:40:27.802Z,10.03
2018-09-06T00:42:31.761Z,10.98
2018-09-06T00:44:34.685Z,11.33
2018-09-06T00:46:38.379Z,9.67
2018-09-06T00:48:41.361Z,11.07
2018-09-06T00:50:44.374Z,9.80
2018-09-06T00:52:48.047Z,16.17
2018-09-06T00:54:50.997Z,11.93
2018-09-06T00:56:53.916Z,15.50
2018-09-06T00:58:58.455Z,16.13
2018-09-06T01:01:02.261Z,12.40
2018-09-06T01:03:05.943Z,10.00
2018-09-06T01:05:09.655Z,13.90
2018-09-06T01:07:13.372Z,15.40
2018-09-06T01:09:16.289Z,9.17
2018-09-06T01:11:19.161Z,12.33
2018-09-06T01:13:22.065Z,12.67
2018-09-06T01:15:25.067Z,9.17
2018-09-06T01:17:28.708Z,10.90
2018-09-06T01:19:31.635Z,12.70
2018-09-06T01:21:34.596Z,7.93
2018-09-06T01:23:37.515Z,12.97
2018-09-06T01:25:40.476Z,10.20
2018-09-06T01:27:44.310Z,15.60
2018-09-06T01:29:47.942Z,10.30
2018-09-06T01:31:50.956Z,11.43
2018-09-06T01:33:53.841Z,9.10
2018-09-06T01:35:58.237Z,11.80
2018-09-06T01:38:01.131Z,12.33
2018-09-06T01:40:04.143Z,11.50
2018-09-06T01:42:06.981Z,8.93
2018-09-06T01:44:09.989Z,17.63
2018-09-06T01:46:12.973Z,17.57
2018-09-06T01:48:15.853Z,20.87
2018-09-06T01:50:19.537Z,12.17
2018-09-06T01:52:23.964Z,11.40
2018-09-06T01:54:26.840Z,15.43
2018-09-06T01:56:29.862Z,11.43
2018-09-06T01:58:33.521Z,11.10
2018-09-06T02:00:36.401Z,10.43
2018-09-06T02:02:39.305Z,10.40
2018-09-06T02:04:42.979Z,10.30
2018-09-06T02:06:46.672Z,13.10
2018-09-06T02:08:49.564Z,10.33
2018-09-06T02:10:52.444Z,10.73
2018-09-06T02:12:55.328Z,11.67
2018-09-06T02:14:58.224Z,11.43
2018-09-06T02:17:01.889Z,13.50
2018-09-06T02:19:04.777Z,15.80
2018-09-06T02:21:07.779Z,12.60
2018-09-06T02:23:10.760Z,12.43
2018-09-06T02:25:14.418Z,12.73
2018-09-06T02:27:17.334Z,16.80
2018-09-06T02:29:20.219Z,15.50
2018-09-06T02:31:23.109Z,11.60
2018-09-06T02:33:26.837Z,19.83
2018-09-06T02:35:30.516Z,12.10
2018-09-06T02:37:34.153Z,13.60
2018-09-06T02:39:37.093Z,14.23
2018-09-06T02:41:41.505Z,13.00
2018-09-06T02:43:44.469Z,21.60
2018-09-06T02:45:47.473Z,12.90
2018-09-06T02:47:50.378Z,12.80
2018-09-06T02:49:54.022Z,11.10
2018-09-06T02:51:57.165Z,11.63
2018-09-06T02:54:00.995Z,13.27
2018-09-06T02:56:04.071Z,9.37
2018-09-06T02:58:06.961Z,12.67
2018-09-06T03:00:09.841Z,13.70
2018-09-06T03:02:12.776Z,12.90
2018-09-06T03:04:16.566Z,17.77
2018-09-06T03:06:20.958Z,10.80
2018-09-06T03:08:23.860Z,10.53
2018-09-06T03:10:27.541Z,10.73
2018-09-06T03:12:30.426Z,13.33
2018-09-06T03:14:33.314Z,14.43
2018-09-06T03:16:36.254Z,12.10
2018-09-06T03:18:39.159Z,15.07
2018-09-06T03:20:42.047Z,11.77
2018-09-06T03:22:45.042Z,11.50
2018-09-06T03:24:47.936Z,17.60
2018-09-06T03:26:51.593Z,12.73
2018-09-06T03:28:54.485Z,13.30
2018-09-06T03:30:57.431Z,12.77
2018-09-06T03:33:00.370Z,12.40
2018-09-06T03:35:03.361Z,11.93
2018-09-06T03:37:06.333Z,11.90
2018-09-06T03:39:10.862Z,15.97
2018-09-06T03:41:13.851Z,20.50
2018-09-06T03:43:18.222Z,11.93
2018-09-06T03:45:21.116Z,18.13
2018-09-06T03:47:24.058Z,15.57
2018-09-06T03:49:27.693Z,17.63
2018-09-06T03:51:30.593Z,14.13
2018-09-06T03:53:33.597Z,11.30
2018-09-06T03:55:37.241Z,13.43
2018-09-06T03:57:40.137Z,12.67
2018-09-06T03:59:43.077Z,15.60
2018-09-06T04:01:45.969Z,16.77
2018-09-06T04:03:48.857Z,13.97
2018-09-06T04:05:51.796Z,17.23
2018-09-06T04:07:54.692Z,12.90
2018-09-06T04:09:58.344Z,11.63
2018-09-06T04:12:01.241Z,14.30
2018-09-06T04:14:04.124Z,16.30
2018-09-06T04:16:07.098Z,13.20
2018-09-06T04:18:10.007Z,11.43
2018-09-06T04:20:13.671Z,16.30
2018-09-06T04:22:16.566Z,16.40
2018-09-06T04:24:19.526Z,18.73
2018-09-06T04:26:23.133Z,15.80
2018-09-06T04:28:26.016Z,13.17
2018-09-06T04:30:28.933Z,15.90
2018-09-06T04:32:33.316Z,15.43
2018-09-06T04:34:36.229Z,13.37
2018-09-06T04:36:39.141Z,13.73
2018-09-06T04:38:42.031Z,16.17
2018-09-06T04:40:44.926Z,21.40
2018-09-06T04:42:47.833Z,17.90
2018-09-06T04:44:50.744Z,13.63
2018-09-06T04:46:53.841Z,15.67
2018-09-06T04:48:57.493Z,18.17
2018-09-06T04:51:00.385Z,15.53
2018-09-06T04:53:03.467Z,16.30
2018-09-06T04:55:06.402Z,13.20
2018-09-06T04:57:09.329Z,16.30
2018-09-06T04:59:13.777Z,13.27
2018-09-06T05:01:18.237Z,11.97
2018-09-06T05:03:21.126Z,14.63
2018-09-06T05:05:24.025Z,21.60
2018-09-06T05:07:26.909Z,13.83
2018-09-06T05:09:29.931Z,18.77
2018-09-06T05:11:33.576Z,17.47
2018-09-06T05:13:36.477Z,15.07
2018-09-06T05:15:39.405Z,17.80
2018-09-06T05:17:42.292Z,15.23
2018-09-06T05:19:45.367Z,16.20
2018-09-06T05:21:49.191Z,19.83
2018-09-06T05:23:52.057Z,18.10
2018-09-06T05:25:54.937Z,16.10
2018-09-06T05:27:57.877Z,15.17
2018-09-06T05:30:00.756Z,14.80
2018-09-06T05:32:04.473Z,45.83
2018-09-06T05:34:08.158Z,30.93
2018-09-06T05:36:11.137Z,14.73
2018-09-06T05:38:13.926Z,14.20
2018-09-06T05:40:17.614Z,19.40
2018-09-06T05:42:20.514Z,14.90
2018-09-06T05:44:24.158Z,28.03
2018-09-06T05:46:27.881Z,15.43
2018-09-06T05:48:30.876Z,21.60
2018-09-06T05:50:34.572Z,20.97
2018-09-06T05:52:37.479Z,21.73
2018-09-06T05:54:41.152Z,22.80
2018-09-06T05:56:44.852Z,23.10
2018-09-06T05:58:47.757Z,15.20
2018-09-06T06:00:51.425Z,16.37
2018-09-06T06:02:54.323Z,18.00
2018-09-06T06:04:57.302Z,22.00
2018-09-06T06:07:00.425Z,33.53
2018-09-06T06:09:03.334Z,25.13
2018-09-06T06:11:06.227Z,15.03
2018-09-06T06:13:09.131Z,17.57
2018-09-06T06:15:12.113Z,18.20
2018-09-06T06:17:15.010Z,18.10
2018-09-06T06:19:18.693Z,15.30
2018-09-06T06:21:21.583Z,17.87
2018-09-06T06:23:25.289Z,18.57
2018-09-06T06:25:28.293Z,17.03
2018-09-06T06:27:31.965Z,18.47
2018-09-06T06:29:36.392Z,28.03
2018-09-06T06:31:39.328Z,15.93
2018-09-06T06:33:42.213Z,20.13
2018-09-06T06:35:45.154Z,21.83
2018-09-06T06:37:48.797Z,19.80
2018-09-06T06:39:51.750Z,25.90
2018-09-06T06:41:54.597Z,18.57
2018-09-06T06:43:58.250Z,17.80
2018-09-06T06:46:01.273Z,18.10
2018-09-06T06:48:04.929Z,22.83
2018-09-06T06:50:07.811Z,19.80
2018-09-06T06:52:10.720Z,17.83
2018-09-06T06:54:13.596Z,20.57
2018-09-06T06:56:16.590Z,25.20
2018-09-06T06:58:19.604Z,21.70
2018-09-06T07:00:22.464Z,18.33
2018-09-06T07:02:26.126Z,18.63
2018-09-06T07:04:29.068Z,21.90
2018-09-06T07:06:32.697Z,17.00
2018-09-06T07:08:35.592Z,17.20
2018-09-06T07:10:38.490Z,13.80
2018-09-06T07:12:41.373Z,19.03
2018-09-06T07:14:44.298Z,27.60
2018-09-06T07:16:47.253Z,26.33
2018-09-06T07:18:50.905Z,19.00
2018-09-06T07:20:53.804Z,22.10
2018-09-06T07:22:56.834Z,28.30
2018-09-06T07:25:00.483Z,24.20
2018-09-06T07:27:03.469Z,21.43
2018-09-06T07:29:06.353Z,16.03
2018-09-06T07:31:09.250Z,16.53
2018-09-06T07:33:13.041Z,16.53
2018-09-06T07:35:16.017Z,17.80
2018-09-06T07:37:18.865Z,21.90
2018-09-06T07:39:21.786Z,18.73
2018-09-06T07:41:24.813Z,15.00
2018-09-06T07:43:28.472Z,18.23
2018-09-06T07:45:31.377Z,35.17
2018-09-06T07:47:35.029Z,18.03
2018-09-06T07:49:37.946Z,36.00
2018-09-06T07:51:41.585Z,28.00
2018-09-06T07:53:44.512Z,20.90
2018-09-06T07:55:47.497Z,14.53
2018-09-06T07:57:50.393Z,16.03
2018-09-06T07:59:54.056Z,28.70
2018-09-06T08:01:56.979Z,22.50
2018-09-06T08:03:59.949Z,21.60
2018-09-06T08:06:02.829Z,21.73
2018-09-06T08:08:06.641Z,17.50
2018-09-06T08:10:10.287Z,29.23
2018-09-06T08:12:13.738Z,20.47
2018-09-06T08:14:16.445Z,17.73
2018-09-06T08:16:19.530Z,16.40
2018-09-06T08:18:22.446Z,19.70
2018-09-06T08:20:25.339Z,25.57
2018-09-06T08:22:28.220Z,25.23
2018-09-06T08:24:32.639Z,18.70
2018-09-06T08:26:36.293Z,17.63
2018-09-06T08:28:39.188Z,18.23
2018-09-06T08:30:42.188Z,17.80
2018-09-06T08:32:45.800Z,17.90
2018-09-06T08:34:48.713Z,31.80
2018-09-06T08:36:51.674Z,35.83
2018-09-06T08:38:54.505Z,22.13
2018-09-06T08:40:57.525Z,20.03
2018-09-06T08:43:00.465Z,24.30
2018-09-06T08:45:03.353Z,22.33
2018-09-06T08:47:06.438Z,22.43
2018-09-06T08:49:10.084Z,19.70
2018-09-06T08:51:13.737Z,22.13
2018-09-06T08:53:16.637Z,30.10
2018-09-06T08:55:19.512Z,19.07
2018-09-06T08:57:22.516Z,22.90
2018-09-06T08:59:25.520Z,25.27
2018-09-06T09:01:29.162Z,25.23
2018-09-06T09:03:32.116Z,24.37
2018-09-06T09:05:35.882Z,25.00
2018-09-06T09:07:38.793Z,35.27
2018-09-06T09:09:42.433Z,28.67
2018-09-06T09:11:45.332Z,20.03
2018-09-06T09:13:48.229Z,18.17
2018-09-06T09:15:51.907Z,26.00
2018-09-06T09:17:54.921Z,23.20
2018-09-06T09:19:58.589Z,17.67
2018-09-06T09:22:01.538Z,21.87
2018-09-06T09:24:05.197Z,23.30
2018-09-06T09:26:08.863Z,21.63
2018-09-06T09:28:11.793Z,22.00
2018-09-06T09:30:14.785Z,11.80
2018-09-06T09:32:18.412Z,10.63
2018-09-06T09:34:21.333Z,14.43
2018-09-06T09:36:24.324Z,12.00
2018-09-06T09:38:27.386Z,10.20
2018-09-06T09:40:30.291Z,20.73
2018-09-06T09:42:33.256Z,16.80
2018-09-06T09:44:36.160Z,11.80
2018-09-06T09:48:41.130Z,9.50
2018-09-06T09:52:46.109Z,10.03
2018-09-06T09:54:48.992Z,8.83
2018-09-06T09:56:52.052Z,8.00
2018-09-06T09:58:54.864Z,9.10
2018-09-06T10:00:57.764Z,7.97
2018-09-06T10:03:00.652Z,7.47
2018-09-06T10:05:03.512Z,12.93
2018-09-06T10:07:06.440Z,14.73
2018-09-06T10:09:09.425Z,10.90
2018-09-06T10:11:13.234Z,8.90
2018-09-06T10:13:16.108Z,11.40
2018-09-06T10:15:19.048Z,10.30
2018-09-06T10:17:21.925Z,14.53
2018-09-06T10:19:24.937Z,7.67
2018-09-06T10:21:28.624Z,8.90
2018-09-06T10:23:32.336Z,22.57
2018-09-06T10:25:36.019Z,8.63
2018-09-06T10:27:38.908Z,5.60
2018-09-06T10:29:43.276Z,10.50
2018-09-06T10:31:46.177Z,10.67
2018-09-06T10:33:49.072Z,15.87
2018-09-06T10:35:51.989Z,13.13
2018-09-06T10:37:55.621Z,11.00
2018-09-06T10:39:58.639Z,12.73
2018-09-06T10:42:02.205Z,10.90
2018-09-06T10:44:05.090Z,12.43
2018-09-06T10:46:08.089Z,15.00
2018-09-06T10:48:12.485Z,9.53
2018-09-06T10:50:15.367Z,18.77
2018-09-06T10:52:18.357Z,8.77
2018-09-06T10:54:21.273Z,10.67
2018-09-06T10:56:24.145Z,20.27
2018-09-06T10:58:27.088Z,12.20
2018-09-06T11:00:30.019Z,10.87
2018-09-06T11:02:32.842Z,14.03
2018-09-06T11:04:35.772Z,15.33
2018-09-06T11:06:39.458Z,14.10
2018-09-06T11:08:42.360Z,20.03
2018-09-06T11:10:46.041Z,9.87
2018-09-06T11:12:48.930Z,11.03
2018-09-06T11:14:51.868Z,9.57
2018-09-06T11:16:54.824Z,7.60
2018-09-06T11:18:58.485Z,14.30
2018-09-06T11:21:01.384Z,11.83
2018-09-06T11:23:05.054Z,10.80
2018-09-06T11:25:07.932Z,12.17
2018-09-06T11:27:10.837Z,7.90
2018-09-06T11:29:13.886Z,10.30
2018-09-06T11:31:16.837Z,9.23
2018-09-06T11:33:20.560Z,9.70
2018-09-06T11:35:23.407Z,11.80
2018-09-06T11:37:26.334Z,11.57
2018-09-06T11:39:29.263Z,11.80
2018-09-06T11:41:33.628Z,10.87
2018-09-06T11:43:36.526Z,16.30
2018-09-06T11:45:40.259Z,10.13
2018-09-06T11:47:43.992Z,15.47
2018-09-06T11:49:46.956Z,11.33
2018-09-06T11:51:50.599Z,10.33
2018-09-06T11:53:53.493Z,10.70
2018-09-06T11:55:56.581Z,8.63
2018-09-06T11:57:59.456Z,11.93
2018-09-06T12:00:02.340Z,10.23
2018-09-06T12:02:05.246Z,8.20
2018-09-06T12:04:08.143Z,12.73
2018-09-06T12:06:11.819Z,7.77
2018-09-06T12:08:14.825Z,12.20
2018-09-06T12:10:18.449Z,14.80
2018-09-06T12:12:21.335Z,9.30
2018-09-06T12:14:24.238Z,7.27
2018-09-06T12:16:27.123Z,6.50
2018-09-06T12:18:30.229Z,12.50
2018-09-06T12:20:33.197Z,9.33
2018-09-06T12:22:36.065Z,9.00
2018-09-06T12:24:39.069Z,10.03
2018-09-06T12:26:41.947Z,9.63
2018-09-06T12:28:44.925Z,14.03
2018-09-06T12:30:47.813Z,9.17
2018-09-06T12:32:50.694Z,8.60
2018-09-06T12:34:54.424Z,10.30
2018-09-06T12:36:58.125Z,8.63
2018-09-06T12:39:01.765Z,8.50
2018-09-06T12:41:04.679Z,9.43
2018-09-06T12:43:07.749Z,8.80
2018-09-06T12:45:10.625Z,10.43
2018-09-06T12:47:13.509Z,10.33
2018-09-06T12:49:16.398Z,10.50
2018-09-06T12:51:19.289Z,11.40
2018-09-06T12:53:22.993Z,10.40
2018-09-06T12:55:25.877Z,8.80
2018-09-06T12:57:29.560Z,10.47
2018-09-06T12:59:32.568Z,14.70
2018-09-06T13:01:36.221Z,9.53
2018-09-06T13:03:39.122Z,10.10
2018-09-06T13:05:42.959Z,9.93
2018-09-06T13:07:46.605Z,11.83
2018-09-06T13:09:50.528Z,14.38
2018-09-06T13:11:55.050Z,14.97
2018-09-06T13:13:58.743Z,11.13
2018-09-06T13:16:01.610Z,20.23
2018-09-06T13:18:04.717Z,14.50
2018-09-06T13:20:08.374Z,15.70
2018-09-06T13:22:11.251Z,14.27
2018-09-06T13:24:14.289Z,13.37
2018-09-06T13:26:17.158Z,12.03
2018-09-06T13:28:21.593Z,14.90
2018-09-06T13:30:25.309Z,13.80
2018-09-06T13:32:28.941Z,13.70
2018-09-06T13:34:31.882Z,17.07
2018-09-06T13:36:35.528Z,16.60
2018-09-06T13:38:38.420Z,18.90
2018-09-06T13:40:41.326Z,15.43
2018-09-06T13:42:45.005Z,13.43
2018-09-06T13:44:47.893Z,27.63
2018-09-06T13:46:51.702Z,17.03
2018-09-06T13:48:54.689Z,14.57
2018-09-06T13:50:57.665Z,13.40
2018-09-06T13:53:00.682Z,15.33
2018-09-06T13:55:03.632Z,15.17
2018-09-06T13:57:06.515Z,15.30
2018-09-06T13:59:09.494Z,15.30
2018-09-06T14:01:12.489Z,18.90
2018-09-06T14:03:15.495Z,16.83
2018-09-06T14:05:19.116Z,15.10
2018-09-06T14:07:22.012Z,13.87
2018-09-06T14:09:24.952Z,11.73
2018-09-06T14:11:28.587Z,10.40
2018-09-06T14:13:31.565Z,16.97
2018-09-06T14:15:34.490Z,16.00
2018-09-06T14:17:37.399Z,16.03
2018-09-06T14:19:41.066Z,20.37
2018-09-06T14:21:44.152Z,16.73
2018-09-06T14:23:47.036Z,19.73
2018-09-06T14:25:50.745Z,20.70
2018-09-06T14:27:54.435Z,17.83
2018-09-06T14:29:57.409Z,19.80
2018-09-06T14:32:00.303Z,14.43
2018-09-06T14:34:03.985Z,14.07
2018-09-06T14:36:06.845Z,12.80
2018-09-06T14:38:09.841Z,13.40
2018-09-06T14:40:12.713Z,12.00
2018-09-06T14:42:15.642Z,11.13
2018-09-06T14:44:19.417Z,13.40
2018-09-06T14:46:22.334Z,8.17
2018-09-06T14:48:26.037Z,20.17
2018-09-06T14:50:29.742Z,16.93
2018-09-06T14:52:32.693Z,13.93
2018-09-06T14:54:36.496Z,8.83
2018-09-06T14:56:39.384Z,11.80
2018-09-06T14:58:43.020Z,9.47
2018-09-06T15:00:45.973Z,14.40
2018-09-06T15:02:48.821Z,8.10
2018-09-06T15:04:51.734Z,13.50
2018-09-06T15:06:55.505Z,9.80
2018-09-06T15:08:59.897Z,16.83
2018-09-06T15:11:02.917Z,17.67
2018-09-06T15:13:06.589Z,16.37
2018-09-06T15:15:09.478Z,15.77
2018-09-06T15:17:12.386Z,12.20
2018-09-06T15:19:15.339Z,12.60
2018-09-06T15:21:18.221Z,10.60
2018-09-06T15:23:21.136Z,13.33
2018-09-06T15:25:24.789Z,9.50
2018-09-06T15:27:27.670Z,9.50
2018-09-06T15:29:30.557Z,15.00
2018-09-06T15:31:33.445Z,13.17
2018-09-06T15:33:36.336Z,9.33
2018-09-06T15:35:39.361Z,32.00
2018-09-06T15:37:43.058Z,10.50
2018-09-06T15:39:46.028Z,13.37
2018-09-06T15:41:49.702Z,14.37
2018-09-06T15:43:54.157Z,12.70
2018-09-06T15:45:57.789Z,9.27
2018-09-06T15:48:00.697Z,12.57
2018-09-06T15:50:03.581Z,11.40
2018-09-06T15:52:06.454Z,15.93
2018-09-06T15:54:09.513Z,9.90
2018-09-06T15:56:12.533Z,12.00
2018-09-06T15:58:15.422Z,10.63
2018-09-06T16:00:18.432Z,12.30
2018-09-06T16:02:22.069Z,19.83
2018-09-06T16:04:24.954Z,13.53
2018-09-06T16:06:27.849Z,10.93
2018-09-06T16:08:30.740Z,12.60
2018-09-06T16:10:33.646Z,13.30
2018-09-06T16:12:37.295Z,14.40
2018-09-06T16:14:40.237Z,12.30
2018-09-06T16:16:43.099Z,14.50
2018-09-06T16:18:46.814Z,12.23
2018-09-06T16:20:49.907Z,12.30
2018-09-06T16:22:53.545Z,11.93
2018-09-06T16:24:56.429Z,13.47
2018-09-06T16:26:59.323Z,11.70
2018-09-06T16:29:02.240Z,11.73
2018-09-06T16:31:05.886Z,17.00
2018-09-06T16:33:08.773Z,13.40
2018-09-06T16:35:11.656Z,18.73
2018-09-06T16:37:14.617Z,15.27
2018-09-06T16:39:18.201Z,17.07
2018-09-06T16:41:21.129Z,16.73
2018-09-06T16:43:24.044Z,14.80
2018-09-06T16:45:27.698Z,12.40
2018-09-06T16:47:30.576Z,14.87
2018-09-06T16:49:33.463Z,11.67
2018-09-06T16:51:36.593Z,12.67
2018-09-06T16:53:40.213Z,17.00
2018-09-06T16:55:43.089Z,11.50
2018-09-06T16:57:46.017Z,15.43
2018-09-06T16:59:48.901Z,12.00
2018-09-06T17:01:53.274Z,15.20
2018-09-06T17:03:56.161Z,10.30
2018-09-06T17:05:59.041Z,14.93
2018-09-06T17:08:02.030Z,10.07
2018-09-06T17:10:04.904Z,11.57
2018-09-06T17:12:07.806Z,12.23
2018-09-06T17:14:10.785Z,18.43
2018-09-06T17:16:13.667Z,9.60
2018-09-06T17:18:16.560Z,12.50
2018-09-06T17:20:19.494Z,12.87
2018-09-06T17:22:23.134Z,12.67
2018-09-06T17:24:26.007Z,15.23
2018-09-06T17:26:28.908Z,9.60
2018-09-06T17:28:33.433Z,10.70
2018-09-06T17:30:37.952Z,12.17
2018-09-06T17:32:41.003Z,11.63
2018-09-06T17:34:44.598Z,9.50
2018-09-06T17:36:47.513Z,12.77
2018-09-06T17:38:50.541Z,12.30
2018-09-06T17:40:54.901Z,19.30
2018-09-06T17:42:57.805Z,11.03
2018-09-06T17:45:01.486Z,11.00
2018-09-06T17:47:04.389Z,14.00
2018-09-06T17:49:07.388Z,20.77
2018-09-06T17:51:11.061Z,11.37
2018-09-06T17:53:13.955Z,17.30
2018-09-06T17:55:16.950Z,11.70
2018-09-06T17:57:19.797Z,15.33
2018-09-06T17:59:22.774Z,13.70
2018-09-06T18:01:25.702Z,10.43
2018-09-06T18:03:29.360Z,11.37
2018-09-06T18:05:33.265Z,11.40
2018-09-06T18:07:36.153Z,11.33
2018-09-06T18:09:39.029Z,12.30
2018-09-06T18:11:42.700Z,10.90
2018-09-06T18:13:45.616Z,12.83
2018-09-06T18:15:48.501Z,17.10
2018-09-06T18:17:51.740Z,12.77
2018-09-06T18:19:54.456Z,16.70
2018-09-06T18:21:57.472Z,16.30
2018-09-06T18:24:01.121Z,13.87
2018-09-06T18:26:04.001Z,14.13
2018-09-06T18:28:06.858Z,10.77
2018-09-06T18:30:09.749Z,15.97
2018-09-06T18:32:12.628Z,19.63
2018-09-06T18:34:15.532Z,13.87
2018-09-06T18:36:18.404Z,12.67
2018-09-06T18:38:21.289Z,16.80
2018-09-06T18:40:24.222Z,13.10
2018-09-06T18:42:27.165Z,12.83
2018-09-06T18:44:30.102Z,15.43
2018-09-06T18:46:33.013Z,13.90
2018-09-06T18:48:35.893Z,11.40
2018-09-06T18:50:38.789Z,22.60
2018-09-06T18:52:41.772Z,13.10
2018-09-06T18:54:45.424Z,11.97
2018-09-06T18:56:49.197Z,12.30
2018-09-06T18:58:52.871Z,12.40
2018-09-06T19:00:55.756Z,18.80
2018-09-06T19:02:59.487Z,16.73
2018-09-06T19:05:03.146Z,20.60
2018-09-06T19:07:06.022Z,18.80
2018-09-06T19:09:08.928Z,13.93
2018-09-06T19:11:11.810Z,16.20
2018-09-06T19:13:15.494Z,18.07
2018-09-06T19:15:18.385Z,22.17
2018-09-06T19:17:22.075Z,18.87
2018-09-06T19:19:25.021Z,13.17
2018-09-06T19:21:29.358Z,18.30
2018-09-06T19:23:32.297Z,16.10
2018-09-06T19:25:35.239Z,17.90
2018-09-06T19:27:38.117Z,18.10
2018-09-06T19:29:41.092Z,20.63
2018-09-06T19:31:44.023Z,23.23
2018-09-06T19:33:47.663Z,24.23
2018-09-06T19:35:50.582Z,21.40
2018-09-06T19:37:54.229Z,25.73
2018-09-06T19:39:57.121Z,23.77
2018-09-06T19:42:00.090Z,19.23
2018-09-06T19:44:02.966Z,19.77
2018-09-06T19:46:06.685Z,21.43
2018-09-06T19:48:09.791Z,18.70
2018-09-06T19:50:13.462Z,19.97
2018-09-06T19:52:16.406Z,17.00
2018-09-06T19:54:20.129Z,27.40
2018-09-06T19:56:22.963Z,24.93
2018-09-06T19:58:26.619Z,22.70
2018-09-06T20:00:29.525Z,26.10
2018-09-06T20:02:32.422Z,22.77
2018-09-06T20:04:35.413Z,30.10
2018-09-06T20:06:39.077Z,27.90
2018-09-06T20:08:41.961Z,25.97
2018-09-06T20:10:44.962Z,28.47
2018-09-06T20:12:47.842Z,33.80
2018-09-06T20:14:50.962Z,30.43
2018-09-06T20:16:54.600Z,24.73
2018-09-06T20:18:57.491Z,29.07
2018-09-06T20:21:00.390Z,23.90
2018-09-06T20:23:03.274Z,37.13
2018-09-06T20:25:06.941Z,30.30
2018-09-06T20:27:09.984Z,29.90
2018-09-06T20:29:13.773Z,28.83
2018-09-06T20:31:17.548Z,30.57
2018-09-06T20:33:20.450Z,34.70
2018-09-06T20:35:24.134Z,30.13
2018-09-06T20:37:27.030Z,25.73
2018-09-06T20:39:30.829Z,23.77
2018-09-06T20:41:34.518Z,26.93
2018-09-06T20:43:37.417Z,32.13
2018-09-06T20:45:40.379Z,24.53
2018-09-06T20:47:43.249Z,39.50
2018-09-06T20:49:46.161Z,33.50
2018-09-06T20:51:49.229Z,29.20
2018-09-06T20:53:52.889Z,29.20
2018-09-06T20:55:55.810Z,31.47
2018-09-06T20:57:58.757Z,31.20
2018-09-06T21:00:01.637Z,25.73
2018-09-06T21:02:04.520Z,36.30
2018-09-06T21:04:07.545Z,28.57
2018-09-06T21:06:11.196Z,33.90
2018-09-06T21:08:14.120Z,31.47
2018-09-06T21:10:17.023Z,32.50
2018-09-06T21:12:20.665Z,32.27
2018-09-06T21:14:23.587Z,34.20
2018-09-06T21:16:26.521Z,35.93
2018-09-06T21:18:30.135Z,36.07
2018-09-06T21:20:33.143Z,49.43
2018-09-06T21:22:36.056Z,37.10
2018-09-06T21:24:39.710Z,34.00
2018-09-06T21:26:43.422Z,32.70
2018-09-06T21:28:47.076Z,34.60
2018-09-06T21:30:50.107Z,40.90
2018-09-06T21:32:53.001Z,34.17
2018-09-06T21:34:56.674Z,43.93
2018-09-06T21:37:01.090Z,39.37
2018-09-06T21:39:05.493Z,42.17
2018-09-06T21:41:08.389Z,37.17
2018-09-06T21:43:11.388Z,38.93
2018-09-06T21:45:14.267Z,43.67
2018-09-06T21:47:17.956Z,47.67
2018-09-06T21:49:21.042Z,43.93
2018-09-06T21:51:24.026Z,45.93
2018-09-06T21:53:27.648Z,51.40
2018-09-06T21:55:31.461Z,50.40
2018-09-06T21:57:35.100Z,50.17
2018-09-06T21:59:37.994Z,48.57
2018-09-06T22:01:41.138Z,56.87
2018-09-06T22:03:58.897Z,43.97
2018-09-06T22:06:01.861Z,47.63
2018-09-06T22:08:04.778Z,51.33
2018-09-06T22:10:07.763Z,48.83
2018-09-06T22:12:10.692Z,50.80
2018-09-06T22:14:13.664Z,42.87
2018-09-06T22:16:17.342Z,58.03
2018-09-06T22:18:21.033Z,53.47
2018-09-06T22:20:23.929Z,49.00
2018-09-06T22:22:27.593Z,50.37
2018-09-06T22:24:30.718Z,49.03
2018-09-06T22:26:34.369Z,57.97
2018-09-06T22:28:37.281Z,56.30
2018-09-06T22:30:40.996Z,48.13
2018-09-06T22:32:44.689Z,45.10
2018-09-06T22:34:47.600Z,75.83
2018-09-06T22:36:50.709Z,51.90
2018-09-06T22:38:53.637Z,47.70
2018-09-06T22:40:57.329Z,47.40
2018-09-06T22:43:01.081Z,49.90
2018-09-06T22:45:04.022Z,55.40
2018-09-06T22:47:06.931Z,45.17
2018-09-06T22:49:09.866Z,50.37
2018-09-06T22:51:12.764Z,50.50
2018-09-06T22:53:16.457Z,50.03
2018-09-06T22:55:19.457Z,42.83
2018-09-06T22:57:22.330Z,47.30
2018-09-06T22:59:25.997Z,47.37
2018-09-06T23:01:29.042Z,44.57
2018-09-06T23:03:32.026Z,57.30
2018-09-06T23:05:35.772Z,49.30
2018-09-06T23:07:38.682Z,51.27
2018-09-06T23:09:42.345Z,51.37
2018-09-06T23:11:45.256Z,48.20
2018-09-06T23:13:48.957Z,53.00
2018-09-06T23:15:51.849Z,50.90
2018-09-06T23:17:55.610Z,52.60
2018-09-06T23:19:58.525Z,51.23
2018-09-06T23:22:02.240Z,50.17
2018-09-06T23:24:05.916Z,59.93
2018-09-06T23:26:08.783Z,51.03
2018-09-06T23:28:11.693Z,46.00
2018-09-06T23:30:16.131Z,53.37
2018-09-06T23:32:19.052Z,49.37
2018-09-06T23:34:21.967Z,55.90
2018-09-06T23:36:25.616Z,55.23
2018-09-06T23:38:28.637Z,49.70
2018-09-06T23:40:31.614Z,54.77
2018-09-06T23:42:34.497Z,51.40
2018-09-06T23:44:37.394Z,51.27
2018-09-06T23:46:41.084Z,54.40
2018-09-06T23:48:44.742Z,57.93
2018-09-06T23:50:47.662Z,54.90
2018-09-06T23:52:50.554Z,55.40
2018-09-06T23:54:54.240Z,51.27
2018-09-06T23:56:57.268Z,60.77
2018-09-06T23:59:00.941Z,53.73
